Time;durP1;ratioP1;P1;durP2;ratioP2;P2;SDS_P1;SDS_P2;PMS_P1;PMS_P2;Temp;Humidity;BMP_temperature;BMP_pressure;BME280_temperature;BME280_humidity;BME280_pressure;Samples;Min_cycle;Max_cycle;Signal;HPM_P1;HPM_P2
2022/08/20 00:01:44;;;;;;;16.23;14.50;;;19.70;99.90;;;;;;5055752;28;20037;-26
2022/08/20 00:04:10;;;;;;;15.85;14.10;;;19.80;99.90;;;;;;5055655;28;20094;-24
2022/08/20 00:06:38;;;;;;;15.43;13.73;;;19.70;99.90;;;;;;5055526;28;20490;-24
2022/08/20 00:09:04;;;;;;;18.58;15.25;;;19.70;99.90;;;;;;5055856;28;20120;-27
2022/08/20 00:11:32;;;;;;;16.40;14.63;;;19.70;99.90;;;;;;5055441;28;20521;-26
2022/08/20 00:14:01;;;;;;;18.33;15.23;;;19.70;99.90;;;;;;5055277;28;20072;-25
2022/08/20 00:16:31;;;;;;;16.77;14.68;;;19.70;99.90;;;;;;5055824;28;20040;-25
2022/08/20 00:19:02;;;;;;;19.60;15.48;;;19.70;99.90;;;;;;5055884;28;20444;-25
2022/08/20 00:21:28;;;;;;;15.73;13.43;;;19.60;99.90;;;;;;5055796;28;20044;-25
2022/08/20 00:23:55;;;;;;;16.20;14.50;;;19.60;99.90;;;;;;5055507;28;20036;-25
2022/08/20 00:26:21;;;;;;;16.88;14.10;;;19.60;99.90;;;;;;5055337;28;20043;-27
2022/08/20 00:28:48;;;;;;;17.45;15.20;;;19.60;99.90;;;;;;5055553;28;20041;-25
2022/08/20 00:31:17;;;;;;;15.43;13.93;;;19.60;99.90;;;;;;5073496;28;20371;-25
2022/08/20 00:33:43;;;;;;;17.10;13.88;;;19.60;99.90;;;;;;5055091;28;20462;-25
2022/08/20 00:36:11;;;;;;;15.05;13.48;;;19.60;99.90;;;;;;5038471;28;20080;-27
2022/08/20 00:38:39;;;;;;;15.98;13.48;;;19.60;99.90;;;;;;5054677;28;20041;-25
2022/08/20 00:41:07;;;;;;;15.63;14.07;;;19.60;99.90;;;;;;5037763;28;20048;-25
2022/08/20 00:43:33;;;;;;;17.80;14.55;;;19.60;99.90;;;;;;5054742;28;20044;-24
2022/08/20 00:46:06;;;;;;;15.40;13.25;;;19.50;99.90;;;;;;5055286;28;20043;-25
2022/08/20 00:48:34;;;;;;;14.75;12.85;;;19.50;99.90;;;;;;5055079;28;20133;-24
2022/08/20 00:51:13;;;;;;;16.30;14.35;;;19.50;99.90;;;;;;5038120;28;20040;-26
2022/08/20 00:53:40;;;;;;;18.00;13.90;;;19.50;99.90;;;;;;5054754;28;20486;-26
2022/08/20 00:56:08;;;;;;;14.77;13.30;;;19.50;99.90;;;;;;5054389;28;20075;-24
2022/08/20 00:58:36;;;;;;;15.95;13.80;;;19.50;99.90;;;;;;5054580;28;20044;-25
2022/08/20 01:01:03;;;;;;;15.18;13.48;;;19.50;99.90;;;;;;5054742;28;20052;-25
2022/08/20 01:03:29;;;;;;;15.40;13.85;;;19.40;99.90;;;;;;5054191;28;20044;-25
2022/08/20 01:05:55;;;;;;;17.30;14.25;;;19.40;99.90;;;;;;5054344;28;20037;-26
2022/08/20 01:08:22;;;;;;;14.48;12.95;;;19.40;99.90;;;;;;5054302;28;20041;-25
2022/08/20 01:10:52;;;;;;;15.07;12.65;;;19.40;99.90;;;;;;5053991;28;20041;-26
2022/08/20 01:13:23;;;;;;;13.82;12.52;;;19.30;99.90;;;;;;5053869;28;20044;-25
2022/08/20 01:15:52;;;;;;;13.82;12.40;;;19.30;99.90;;;;;;5070716;28;20047;-26
2022/08/20 01:18:23;;;;;;;14.13;12.48;;;19.30;99.90;;;;;;5054232;28;20056;-25
2022/08/20 01:21:01;;;;;;;13.48;11.43;;;19.30;99.90;;;;;;5054136;28;20269;-26
2022/08/20 01:23:54;;;;;;;12.75;11.50;;;19.20;99.90;;;;;;5053771;28;20047;-26
2022/08/20 01:26:22;;;;;;;12.80;11.35;;;19.20;99.90;;;;;;5054220;28;20244;-26
2022/08/20 01:28:55;;;;;;;13.27;11.80;;;19.10;99.90;;;;;;5053883;28;20590;-24
2022/08/20 01:31:26;;;;;;;12.93;11.48;;;19.10;99.90;;;;;;5053560;28;20075;-25
2022/08/20 01:33:54;;;;;;;13.65;11.65;;;19.10;99.90;;;;;;5053714;28;20047;-25
2022/08/20 01:36:24;;;;;;;12.30;10.95;;;19.10;99.90;;;;;;5053572;28;20036;-25
2022/08/20 01:38:50;;;;;;;14.98;12.13;;;19.00;99.90;;;;;;5053568;28;20080;-25
2022/08/20 01:41:21;;;;;;;14.45;10.90;;;19.00;99.90;;;;;;5053525;28;20087;-25
2022/08/20 01:43:55;;;;;;;12.90;11.52;;;19.00;99.90;;;;;;5053477;28;20402;-27
2022/08/20 01:46:27;;;;;;;15.90;11.75;;;19.00;99.90;;;;;;5053587;28;20498;-26
2022/08/20 01:48:54;;;;;;;16.70;12.00;;;18.90;99.90;;;;;;5053627;28;20048;-25
2022/08/20 01:51:24;;;;;;;12.45;11.10;;;19.00;99.90;;;;;;5053560;28;20043;-26
2022/08/20 01:53:53;;;;;;;12.77;11.45;;;19.00;99.90;;;;;;5052926;28;20501;-27
2022/08/20 01:56:23;;;;;;;14.50;12.05;;;19.00;99.90;;;;;;5071393;28;20036;-25
2022/08/20 01:58:51;;;;;;;13.60;11.07;;;19.00;99.90;;;;;;5053470;28;20044;-25
2022/08/20 02:01:39;;;;;;;14.77;12.50;;;19.00;99.90;;;;;;5036475;28;20049;-25
2022/08/20 02:04:08;;;;;;;15.98;11.02;;;19.00;99.90;;;;;;5053423;28;20077;-25
2022/08/20 02:06:41;;;;;;;13.88;11.55;;;19.00;99.90;;;;;;5053303;28;20037;-26
2022/08/20 02:09:08;;;;;;;14.48;11.35;;;19.00;99.90;;;;;;5053446;28;20440;-25
2022/08/20 02:11:35;;;;;;;17.15;12.52;;;18.90;99.90;;;;;;5053038;28;20115;-25
2022/08/20 02:14:01;;;;;;;12.88;11.63;;;18.90;99.90;;;;;;5052932;28;20048;-24
2022/08/20 02:16:30;;;;;;;11.25;10.18;;;18.90;99.90;;;;;;5053331;28;20389;-25
2022/08/20 02:18:59;;;;;;;14.10;10.57;;;18.90;99.90;;;;;;5053233;28;20524;-25
2022/08/20 02:21:30;;;;;;;12.82;11.52;;;18.80;99.90;;;;;;5053195;28;20124;-25
2022/08/20 02:23:57;;;;;;;11.98;10.73;;;18.80;99.90;;;;;;5053002;28;20052;-25
2022/08/20 02:26:23;;;;;;;13.25;11.68;;;18.80;99.90;;;;;;5052967;28;20137;-24
2022/08/20 02:28:51;;;;;;;14.90;11.95;;;18.80;99.90;;;;;;5069976;28;20082;-26
2022/08/20 02:31:19;;;;;;;13.85;11.23;;;18.80;99.90;;;;;;5052592;28;20036;-25
2022/08/20 02:33:45;;;;;;;14.80;11.95;;;18.70;99.90;;;;;;5052757;28;20051;-25
2022/08/20 02:36:12;;;;;;;16.38;11.18;;;18.70;99.90;;;;;;5053232;28;20382;-27
2022/08/20 02:38:39;;;;;;;15.07;10.30;;;18.60;99.90;;;;;;5052670;28;20044;-29
2022/08/20 02:41:06;;;;;;;12.43;10.70;;;18.60;99.90;;;;;;5052696;28;20080;-26
2022/08/20 02:43:32;;;;;;;11.85;10.68;;;18.60;99.90;;;;;;5053077;28;20699;-26
2022/08/20 02:45:59;;;;;;;12.63;10.93;;;18.50;99.90;;;;;;5053257;28;20069;-26
2022/08/20 02:48:26;;;;;;;14.82;10.43;;;18.50;99.90;;;;;;5052975;28;20047;-25
2022/08/20 02:50:56;;;;;;;12.80;10.40;;;18.40;99.90;;;;;;5052779;28;20119;-25
2022/08/20 02:53:24;;;;;;;14.77;10.35;;;18.40;99.90;;;;;;5052730;28;20048;-26
2022/08/20 02:55:50;;;;;;;13.38;10.15;;;18.30;99.90;;;;;;5052690;28;20041;-25
2022/08/20 02:58:17;;;;;;;11.98;9.98;;;18.30;99.90;;;;;;5053053;28;20102;-25
2022/08/20 03:00:43;;;;;;;12.77;9.52;;;18.30;99.90;;;;;;5069336;28;20037;-25
2022/08/20 03:03:10;;;;;;;14.52;10.55;;;18.30;99.90;;;;;;5052712;28;20044;-26
2022/08/20 03:05:39;;;;;;;15.25;10.63;;;18.30;99.90;;;;;;5056719;28;20043;-25
2022/08/20 03:08:06;;;;;;;12.98;10.23;;;18.20;99.90;;;;;;5074318;28;20034;-25
2022/08/20 03:10:34;;;;;;;11.10;9.73;;;18.20;99.90;;;;;;5056565;28;20040;-25
2022/08/20 03:13:01;;;;;;;13.27;10.57;;;18.20;99.90;;;;;;5073538;28;20083;-25
2022/08/20 03:15:29;;;;;;;10.90;9.80;;;18.10;99.90;;;;;;5056405;28;20482;-25
2022/08/20 03:17:55;;;;;;;12.48;10.20;;;18.10;99.90;;;;;;5072997;28;20048;-26
2022/08/20 03:20:22;;;;;;;14.52;10.68;;;18.10;99.90;;;;;;5056267;28;20067;-25
2022/08/20 03:22:48;;;;;;;12.20;10.57;;;18.10;99.90;;;;;;5056205;28;20494;-25
2022/08/20 03:25:14;;;;;;;12.27;10.25;;;18.00;99.90;;;;;;5056289;28;20043;-25
2022/08/20 03:27:41;;;;;;;15.18;11.20;;;18.00;99.90;;;;;;5056374;28;20101;-25
2022/08/20 03:30:10;;;;;;;12.85;10.20;;;18.00;99.90;;;;;;5056082;28;20044;-25
2022/08/20 03:32:37;;;;;;;15.13;10.00;;;18.00;99.90;;;;;;5056106;28;20041;-25
2022/08/20 03:35:06;;;;;;;12.25;10.00;;;17.90;99.90;;;;;;5072927;28;20382;-27
2022/08/20 03:37:34;;;;;;;13.70;10.15;;;18.00;99.90;;;;;;5073750;28;20032;-25
2022/08/20 03:40:01;;;;;;;11.93;10.02;;;17.90;99.90;;;;;;5073671;28;20032;-25
2022/08/20 03:42:26;;;;;;;14.95;10.70;;;17.90;99.90;;;;;;5055747;28;20485;-25
2022/08/20 03:44:52;;;;;;;14.13;10.93;;;17.90;99.90;;;;;;5055996;28;20116;-25
2022/08/20 03:47:19;;;;;;;13.43;10.55;;;17.90;99.90;;;;;;5056091;28;20401;-25
2022/08/20 03:49:45;;;;;;;14.35;10.90;;;17.80;99.90;;;;;;5055951;28;20040;-27
2022/08/20 03:52:11;;;;;;;16.10;10.80;;;17.80;99.90;;;;;;5055779;28;20039;-25
2022/08/20 03:54:37;;;;;;;14.05;10.13;;;17.70;99.90;;;;;;5055407;28;20494;-25
2022/08/20 03:57:03;;;;;;;11.55;10.40;;;17.70;99.90;;;;;;5055915;28;20040;-25
2022/08/20 03:59:31;;;;;;;14.02;10.70;;;17.60;99.90;;;;;;5055757;28;20448;-27
2022/08/20 04:01:58;;;;;;;12.90;10.32;;;17.60;99.90;;;;;;5055807;28;20098;-25
2022/08/20 04:04:25;;;;;;;13.00;10.10;;;17.60;99.90;;;;;;5055732;28;20068;-25
2022/08/20 04:06:51;;;;;;;14.25;10.88;;;17.60;99.90;;;;;;5056034;28;20036;-25
2022/08/20 04:09:17;;;;;;;15.60;10.77;;;17.60;99.90;;;;;;5055713;28;20040;-25
2022/08/20 04:11:43;;;;;;;11.93;10.68;;;17.50;99.90;;;;;;5055646;28;20047;-25
2022/08/20 04:14:10;;;;;;;14.25;11.05;;;17.50;99.90;;;;;;5072291;28;20489;-26
2022/08/20 04:16:38;;;;;;;15.93;11.30;;;17.50;99.90;;;;;;5054174;28;20047;-25
2022/08/20 04:19:05;;;;;;;16.35;11.93;;;17.50;99.90;;;;;;5038783;28;20056;-28
2022/08/20 04:21:31;;;;;;;13.75;10.55;;;17.50;99.90;;;;;;5055029;28;20041;-25
2022/08/20 04:23:57;;;;;;;13.85;10.82;;;17.50;99.90;;;;;;5055020;28;20430;-25
2022/08/20 04:26:23;;;;;;;12.82;10.55;;;17.40;99.90;;;;;;5055739;28;20116;-26
2022/08/20 04:28:51;;;;;;;11.75;10.02;;;17.50;99.90;;;;;;5055301;28;20427;-26
2022/08/20 04:31:17;;;;;;;14.52;11.75;;;17.40;99.90;;;;;;5055454;28;20045;-25
2022/08/20 04:33:43;;;;;;;14.90;11.55;;;17.50;99.90;;;;;;5055341;28;20543;-25
2022/08/20 04:36:09;;;;;;;13.80;10.82;;;17.40;99.90;;;;;;5055163;28;20397;-25
2022/08/20 04:38:35;;;;;;;14.48;11.57;;;17.50;99.90;;;;;;5055204;28;20044;-25
2022/08/20 04:41:01;;;;;;;15.15;11.10;;;17.40;99.90;;;;;;5054936;28;20417;-26
2022/08/20 04:43:32;;;;;;;15.52;12.13;;;17.40;99.90;;;;;;5054637;28;20040;-27
2022/08/20 04:46:00;;;;;;;11.85;10.48;;;17.40;99.90;;;;;;5055284;28;20044;-25
2022/08/20 04:48:27;;;;;;;14.50;11.05;;;17.40;99.90;;;;;;5038338;28;20036;-27
2022/08/20 04:50:55;;;;;;;14.95;10.45;;;17.40;99.90;;;;;;5055021;28;20101;-25
2022/08/20 04:53:23;;;;;;;13.48;10.45;;;17.40;99.90;;;;;;5054805;28;20048;-26
2022/08/20 04:55:51;;;;;;;11.55;10.38;;;17.40;99.90;;;;;;5054849;28;20041;-27
2022/08/20 04:58:18;;;;;;;14.23;10.00;;;17.40;99.90;;;;;;5054413;28;20041;-25
2022/08/20 05:00:50;;;;;;;14.50;10.50;;;17.40;99.90;;;;;;5054433;28;20032;-25
2022/08/20 05:03:16;;;;;;;10.93;9.63;;;17.40;99.90;;;;;;5054599;28;20048;-25
2022/08/20 05:05:44;;;;;;;11.27;9.75;;;17.40;99.90;;;;;;5071111;28;20035;-25
2022/08/20 05:08:11;;;;;;;12.55;9.65;;;17.30;99.90;;;;;;5071169;28;20070;-25
2022/08/20 05:10:38;;;;;;;14.75;10.50;;;17.30;99.90;;;;;;5070849;28;20036;-25
2022/08/20 05:13:05;;;;;;;12.23;9.40;;;17.30;99.90;;;;;;5053848;28;20040;-25
2022/08/20 05:15:31;;;;;;;12.95;9.85;;;17.20;99.90;;;;;;5070980;28;20486;-25
2022/08/20 05:18:00;;;;;;;14.45;9.68;;;17.20;99.90;;;;;;5070998;28;20432;-26
2022/08/20 05:20:29;;;;;;;13.38;9.68;;;17.20;99.90;;;;;;5070759;28;20048;-25
2022/08/20 05:22:55;;;;;;;12.32;9.00;;;17.20;99.90;;;;;;5070716;28;20449;-25
2022/08/20 05:25:21;;;;;;;10.95;9.50;;;17.20;99.90;;;;;;5054006;28;20090;-29
2022/08/20 05:27:47;;;;;;;16.02;10.75;;;17.20;99.90;;;;;;5071943;28;20037;-26
2022/08/20 05:30:12;;;;;;;11.07;8.93;;;17.20;99.90;;;;;;5053867;28;20032;-25
2022/08/20 05:32:38;;;;;;;12.32;9.45;;;17.10;99.90;;;;;;5070907;28;20059;-25
2022/08/20 05:35:06;;;;;;;13.13;10.43;;;17.20;99.90;;;;;;5070990;28;20402;-25
2022/08/20 05:37:36;;;;;;;14.52;9.90;;;17.20;99.90;;;;;;5053762;28;20045;-26
2022/08/20 05:40:10;;;;;;;13.35;9.20;;;17.10;99.90;;;;;;5070551;28;20041;-26
2022/08/20 05:42:36;;;;;;;10.02;8.90;;;17.20;99.90;;;;;;5071906;28;20461;-25
2022/08/20 05:45:04;;;;;;;11.80;10.07;;;17.20;99.90;;;;;;5070618;28;20505;-26
2022/08/20 05:47:37;;;;;;;9.80;8.32;;;17.10;99.90;;;;;;5053810;28;20048;-25
2022/08/20 05:50:04;;;;;;;13.82;9.63;;;17.10;99.90;;;;;;5070676;28;20037;-25
2022/08/20 05:52:30;;;;;;;9.82;8.82;;;17.10;99.90;;;;;;5070284;28;20036;-25
2022/08/20 05:54:56;;;;;;;11.05;8.75;;;17.10;99.90;;;;;;5070168;28;20040;-26
2022/08/20 05:57:22;;;;;;;11.45;9.70;;;17.20;99.90;;;;;;5070186;28;20043;-25
2022/08/20 05:59:48;;;;;;;12.48;10.40;;;17.20;99.90;;;;;;5071610;28;20031;-25
2022/08/20 06:04:58;;;;;;;12.75;9.52;;;17.30;99.90;;;;;;5071561;28;20537;-25
2022/08/20 06:07:24;;;;;;;13.95;10.18;;;17.30;99.90;;;;;;5069876;28;20071;-25
2022/08/20 06:09:49;;;;;;;13.38;9.50;;;17.40;99.90;;;;;;5053473;28;20040;-25
2022/08/20 06:12:17;;;;;;;12.55;9.15;;;17.60;99.90;;;;;;5069715;28;20040;-27
2022/08/20 06:14:46;;;;;;;14.40;9.45;;;17.70;99.90;;;;;;5069871;28;20034;-26
2022/08/20 06:17:16;;;;;;;13.07;9.63;;;17.80;99.90;;;;;;5069865;28;20068;-27
2022/08/20 06:19:43;;;;;;;13.70;8.95;;;17.80;99.90;;;;;;5070034;28;20033;-26
2022/08/20 06:22:09;;;;;;;12.63;9.68;;;17.90;99.90;;;;;;5070188;28;20035;-25
2022/08/20 06:24:34;;;;;;;15.00;9.30;;;18.00;99.90;;;;;;5069789;28;20044;-25
2022/08/20 06:27:02;;;;;;;11.52;8.45;;;18.10;99.90;;;;;;5052857;28;20039;-25
2022/08/20 06:29:29;;;;;;;12.20;8.50;;;18.20;99.90;;;;;;5070025;28;20040;-26
2022/08/20 06:31:55;;;;;;;11.70;8.30;;;18.20;99.90;;;;;;5070012;28;20486;-26
2022/08/20 06:34:26;;;;;;;14.13;8.23;;;18.20;99.90;;;;;;5069673;28;20127;-25
2022/08/20 06:36:53;;;;;;;13.13;8.20;;;18.20;99.90;;;;;;5053057;28;20041;-25
2022/08/20 06:39:19;;;;;;;10.40;7.65;;;18.20;99.90;;;;;;5068686;28;20087;-25
2022/08/20 06:41:45;;;;;;;11.32;7.60;;;18.30;99.90;;;;;;5069513;28;20072;-25
2022/08/20 06:44:10;;;;;;;10.52;7.00;;;18.30;99.90;;;;;;5069455;28;20078;-26
2022/08/20 06:46:37;;;;;;;9.88;7.15;;;18.40;99.90;;;;;;5069727;28;20044;-27
2022/08/20 06:49:05;;;;;;;12.05;8.13;;;18.60;99.90;;;;;;5069736;28;20044;-25
2022/08/20 06:51:31;;;;;;;11.75;7.10;;;18.70;99.90;;;;;;5052985;28;20037;-26
2022/08/20 06:53:57;;;;;;;11.10;6.45;;;18.90;99.90;;;;;;5069600;28;20566;-26
2022/08/20 06:56:23;;;;;;;12.15;7.00;;;19.00;99.90;;;;;;5069649;28;20501;-25
2022/08/20 06:58:49;;;;;;;9.77;4.82;;;19.10;99.90;;;;;;5069626;28;20043;-27
2022/08/20 07:01:19;;;;;;;7.80;5.25;;;19.20;99.90;;;;;;5069895;28;20045;-26
2022/08/20 07:03:48;;;;;;;7.88;3.97;;;19.20;99.90;;;;;;5069523;28;20047;-26
2022/08/20 07:06:14;;;;;;;8.75;4.47;;;19.20;99.90;;;;;;5069690;28;20315;-25
2022/08/20 07:08:41;;;;;;;8.05;4.03;;;19.20;99.90;;;;;;5069752;28;20044;-26
2022/08/20 07:11:07;;;;;;;9.90;4.63;;;19.30;99.90;;;;;;5069751;28;20516;-26
2022/08/20 07:13:35;;;;;;;7.25;3.72;;;19.40;99.90;;;;;;5069896;28;20036;-28
2022/08/20 07:16:02;;;;;;;11.85;4.25;;;19.40;99.90;;;;;;5069647;28;20042;-27
2022/08/20 07:18:27;;;;;;;9.25;3.63;;;19.50;99.90;;;;;;5069768;28;20032;-26
2022/08/20 07:20:56;;;;;;;7.90;3.70;;;19.50;99.90;;;;;;5069895;28;20055;-25
2022/08/20 07:23:22;;;;;;;7.13;3.53;;;19.50;99.90;;;;;;5069554;28;20080;-26
2022/08/20 07:25:49;;;;;;;7.57;3.55;;;19.50;99.90;;;;;;5069860;28;20041;-25
2022/08/20 07:28:18;;;;;;;8.40;3.83;;;19.40;99.90;;;;;;5069728;28;20047;-25
2022/08/20 07:33:30;;;;;;;7.18;3.75;;;19.50;99.90;;;;;;5070499;28;20460;-25
2022/08/20 07:35:58;;;;;;;6.28;3.50;;;19.60;99.90;;;;;;5069664;28;20522;-26
2022/08/20 07:38:26;;;;;;;6.60;3.40;;;19.70;99.90;;;;;;5070818;28;20520;-25
2022/08/20 07:40:54;;;;;;;9.40;2.78;;;19.80;99.90;;;;;;5052528;28;20040;-25
2022/08/20 07:43:22;;;;;;;8.27;3.00;;;19.90;99.90;;;;;;5070653;28;20032;-25
2022/08/20 07:45:55;;;;;;;6.88;2.97;;;19.90;99.90;;;;;;5069176;28;20036;-26
2022/08/20 07:48:24;;;;;;;7.38;2.40;;;19.90;99.90;;;;;;5069671;28;20718;-26
2022/08/20 07:50:51;;;;;;;7.03;2.28;;;19.80;99.90;;;;;;5070797;28;20036;-26
2022/08/20 07:53:17;;;;;;;7.38;2.40;;;19.90;99.90;;;;;;5072865;28;20116;-27
2022/08/20 07:55:43;;;;;;;6.78;2.20;;;19.90;99.90;;;;;;5072801;28;20056;-25
2022/08/20 07:58:12;;;;;;;6.15;2.05;;;20.00;99.90;;;;;;5072965;28;20037;-25
2022/08/20 08:00:38;;;;;;;6.18;2.08;;;20.20;99.90;;;;;;5072824;28;20044;-26
2022/08/20 08:03:05;;;;;;;7.50;2.10;;;20.40;99.90;;;;;;5072405;28;20037;-26
2022/08/20 08:05:34;;;;;;;5.47;1.55;;;20.60;99.90;;;;;;5056073;28;20036;-25
2022/08/20 08:08:01;;;;;;;5.90;1.88;;;20.70;99.90;;;;;;5072799;28;20037;-25
2022/08/20 08:10:27;;;;;;;5.35;1.90;;;20.90;99.90;;;;;;5072726;28;20033;-25
2022/08/20 08:13:01;;;;;;;4.82;1.73;;;21.00;99.90;;;;;;5072400;28;20047;-26
2022/08/20 08:15:31;;;;;;;6.75;1.70;;;21.10;99.90;;;;;;5074053;28;20177;-27
2022/08/20 08:18:06;;;;;;;7.05;1.90;;;21.10;99.90;;;;;;5072302;28;20123;-26
2022/08/20 08:20:39;;;;;;;4.55;1.77;;;21.20;99.90;;;;;;5072682;28;20401;-26
2022/08/20 08:23:06;;;;;;;8.02;1.95;;;21.30;99.90;;;;;;5072372;28;20620;-26
2022/08/20 08:25:33;;;;;;;7.95;1.85;;;21.60;99.90;;;;;;5072152;28;20039;-26
2022/08/20 08:27:59;;;;;;;5.32;1.95;;;21.80;99.90;;;;;;5073304;28;20094;-25
2022/08/20 08:30:27;;;;;;;6.13;1.80;;;22.10;99.90;;;;;;5072504;28;20498;-27
2022/08/20 08:35:39;;;;;;;4.82;1.80;;;22.40;99.90;;;;;;5073377;28;20048;-25
2022/08/20 08:38:05;;;;;;;5.80;1.70;;;22.70;99.90;;;;;;5071868;28;20094;-25
2022/08/20 08:40:32;;;;;;;5.30;1.65;;;22.80;99.90;;;;;;5071920;28;20041;-25
2022/08/20 08:43:01;;;;;;;5.10;1.60;;;22.90;99.90;;;;;;5071850;28;20090;-25
2022/08/20 08:45:37;;;;;;;4.03;1.50;;;23.00;99.90;;;;;;5055476;28;20040;-26
2022/08/20 08:48:04;;;;;;;5.72;1.67;;;22.90;99.90;;;;;;5055374;28;20517;-25
2022/08/20 08:50:32;;;;;;;4.15;1.70;;;22.90;99.90;;;;;;5071852;28;20055;-26
2022/08/20 08:53:01;;;;;;;6.78;1.70;;;23.00;99.90;;;;;;5071268;28;20074;-27
2022/08/20 08:55:28;;;;;;;4.25;1.58;;;23.10;99.90;;;;;;5054809;28;20144;-27
2022/08/20 08:57:57;;;;;;;5.50;1.50;;;23.40;99.90;;;;;;5071774;28;20040;-26
2022/08/20 09:00:23;;;;;;;5.47;1.60;;;23.60;99.90;;;;;;5072542;28;20040;-26
2022/08/20 09:03:01;;;;;;;2.58;1.10;;;23.80;99.90;;;;;;5071270;28;20047;-27
2022/08/20 09:05:37;;;;;;;4.45;1.10;;;24.10;99.90;;;;;;5055146;28;20501;-26
2022/08/20 09:08:08;;;;;;;3.33;1.33;;;24.30;99.90;;;;;;5071314;28;20047;-26
2022/08/20 09:10:33;;;;;;;3.83;1.15;;;24.60;99.90;;;;;;5071566;28;20044;-27
2022/08/20 09:13:02;;;;;;;3.10;1.10;;;24.70;99.90;;;;;;5071173;28;20453;-27
2022/08/20 09:15:28;;;;;;;4.50;1.63;;;24.90;99.90;;;;;;5071577;28;20478;-27
2022/08/20 09:17:54;;;;;;;4.25;1.40;;;24.90;99.90;;;;;;5071080;28;20101;-27
2022/08/20 09:20:23;;;;;;;3.42;1.10;;;24.90;99.90;;;;;;5071197;28;20045;-26
2022/08/20 09:22:49;;;;;;;4.35;1.40;;;25.00;98.50;;;;;;5070969;28;20067;-26
2022/08/20 09:25:15;;;;;;;2.25;1.10;;;25.20;99.90;;;;;;5071160;28;20040;-26
2022/08/20 09:27:41;;;;;;;5.95;1.27;;;25.30;99.90;;;;;;5071344;28;20431;-27
2022/08/20 09:30:07;;;;;;;3.25;1.10;;;25.50;99.50;;;;;;5071220;28;20471;-26
2022/08/20 09:32:33;;;;;;;4.47;1.27;;;25.60;97.80;;;;;;5070911;28;20076;-26
2022/08/20 09:34:59;;;;;;;3.83;1.40;;;25.70;90.80;;;;;;5070965;28;20036;-26
2022/08/20 09:37:28;;;;;;;3.80;1.10;;;25.90;93.10;;;;;;5071059;28;20260;-27
2022/08/20 09:39:54;;;;;;;2.75;1.27;;;26.20;93.70;;;;;;5072213;28;20493;-26
2022/08/20 09:42:27;;;;;;;3.63;1.08;;;26.40;91.40;;;;;;5070694;28;20083;-26
2022/08/20 09:44:53;;;;;;;3.25;1.10;;;26.50;90.00;;;;;;5070758;28;20033;-26
2022/08/20 09:47:19;;;;;;;4.60;1.20;;;26.50;92.00;;;;;;5072295;28;20078;-26
2022/08/20 09:49:45;;;;;;;3.72;1.70;;;26.50;82.20;;;;;;5070444;28;20036;-26
2022/08/20 09:52:24;;;;;;;2.40;1.48;;;26.70;85.20;;;;;;5072256;28;20066;-28
2022/08/20 09:54:54;;;;;;;2.78;1.10;;;26.70;71.00;;;;;;5070867;28;20048;-28
2022/08/20 09:57:20;;;;;;;5.15;1.50;;;26.80;66.70;;;;;;5070959;28;20394;-27
2022/08/20 09:59:53;;;;;;;4.43;1.17;;;26.90;75.10;;;;;;5071211;28;20049;-26
2022/08/20 10:02:19;;;;;;;3.75;1.20;;;27.10;72.00;;;;;;5070566;28;20119;-27
2022/08/20 10:04:45;;;;;;;4.90;1.10;;;27.30;69.10;;;;;;5070829;28;20116;-28
2022/08/20 10:07:11;;;;;;;4.93;1.50;;;27.20;68.40;;;;;;5070776;28;20116;-28
2022/08/20 10:09:37;;;;;;;5.95;1.48;;;27.40;67.10;;;;;;5070302;28;20043;-26
2022/08/20 10:12:03;;;;;;;3.78;1.20;;;27.20;66.00;;;;;;5070884;28;20174;-27
2022/08/20 10:14:30;;;;;;;3.08;1.00;;;27.10;66.70;;;;;;5070806;28;20044;-27
2022/08/20 10:17:00;;;;;;;3.20;1.00;;;26.70;65.80;;;;;;5070742;28;20036;-27
2022/08/20 10:19:29;;;;;;;4.22;1.15;;;26.40;63.00;;;;;;5070241;28;20112;-26
2022/08/20 10:21:54;;;;;;;2.50;0.93;;;26.10;61.90;;;;;;5070512;28;20044;-26
2022/08/20 10:24:21;;;;;;;7.13;1.75;;;25.50;61.50;;;;;;5070368;28;20044;-26
2022/08/20 10:26:48;;;;;;;2.88;1.33;;;25.40;63.80;;;;;;5070662;28;20072;-28
2022/08/20 10:29:14;;;;;;;3.15;1.20;;;25.50;63.50;;;;;;5070757;28;20068;-27
2022/08/20 10:31:40;;;;;;;3.50;1.30;;;26.00;65.60;;;;;;5070089;28;20033;-28
2022/08/20 10:34:06;;;;;;;3.08;1.40;;;26.30;62.30;;;;;;5070025;28;20499;-27
2022/08/20 10:36:32;;;;;;;5.10;1.52;;;26.70;64.60;;;;;;5071593;28;20040;-27
2022/08/20 10:38:58;;;;;;;6.78;1.63;;;27.10;63.20;;;;;;5053429;28;20397;-28
2022/08/20 10:41:23;;;;;;;2.90;1.48;;;27.40;63.30;;;;;;5070178;28;20383;-28
2022/08/20 10:43:49;;;;;;;4.28;1.50;;;28.00;60.30;;;;;;5070188;28;20048;-28
2022/08/20 10:46:16;;;;;;;4.60;1.30;;;28.10;54.10;;;;;;5070198;28;20402;-27
2022/08/20 10:48:42;;;;;;;4.35;1.55;;;28.10;52.30;;;;;;5069519;28;20045;-26
2022/08/20 10:51:07;;;;;;;4.28;1.13;;;28.50;52.50;;;;;;5070530;28;20485;-28
2022/08/20 10:53:34;;;;;;;3.38;0.98;;;27.70;50.90;;;;;;5070102;28;20071;-26
2022/08/20 10:56:00;;;;;;;4.28;1.50;;;27.30;51.70;;;;;;5070191;28;20052;-27
2022/08/20 10:58:26;;;;;;;5.32;1.40;;;27.40;53.00;;;;;;5070413;28;20044;-28
2022/08/20 11:00:52;;;;;;;3.38;1.30;;;27.70;54.50;;;;;;5053687;28;20181;-26
2022/08/20 11:03:18;;;;;;;4.28;1.20;;;27.70;54.60;;;;;;5070134;28;20128;-27
2022/08/20 11:05:45;;;;;;;4.45;1.50;;;27.90;53.40;;;;;;5069934;28;20049;-27
2022/08/20 11:08:10;;;;;;;4.13;1.20;;;28.00;52.90;;;;;;5070070;28;20036;-28
2022/08/20 11:10:37;;;;;;;3.70;1.30;;;28.20;50.70;;;;;;5070052;28;20052;-28
2022/08/20 11:13:05;;;;;;;3.70;1.20;;;28.00;50.30;;;;;;5079035;28;20048;-28
2022/08/20 11:15:35;;;;;;;2.92;1.20;;;27.80;50.20;;;;;;5069728;28;20041;-27
2022/08/20 11:18:02;;;;;;;3.95;1.40;;;27.50;51.10;;;;;;5070377;28;20441;-26
2022/08/20 11:20:30;;;;;;;3.92;1.40;;;27.20;52.10;;;;;;5070060;28;20098;-26
2022/08/20 11:22:57;;;;;;;3.30;1.48;;;27.00;52.70;;;;;;5070099;28;20141;-26
2022/08/20 11:25:23;;;;;;;3.65;1.45;;;26.90;52.10;;;;;;5071992;28;20036;-27
2022/08/20 11:27:50;;;;;;;2.70;1.35;;;26.70;53.20;;;;;;5073861;28;20032;-27
2022/08/20 11:30:26;;;;;;;5.20;1.35;;;26.50;53.20;;;;;;5074162;28;20102;-26
2022/08/20 11:32:52;;;;;;;3.78;1.10;;;26.20;52.10;;;;;;5073950;28;20094;-27
2022/08/20 11:35:20;;;;;;;4.53;1.38;;;25.90;53.00;;;;;;5074486;28;20537;-26
2022/08/20 11:37:46;;;;;;;3.83;1.20;;;25.90;53.20;;;;;;5074103;28;20047;-27
2022/08/20 11:40:12;;;;;;;4.97;1.52;;;26.20;52.40;;;;;;5073791;28;20404;-27
2022/08/20 11:42:38;;;;;;;3.47;1.40;;;26.90;54.30;;;;;;5073304;28;20048;-27
2022/08/20 11:45:05;;;;;;;2.58;1.05;;;27.10;54.70;;;;;;5073081;28;20044;-26
2022/08/20 11:47:34;;;;;;;5.07;1.33;;;27.10;54.90;;;;;;5073687;28;20394;-26
2022/08/20 11:50:09;;;;;;;3.97;1.30;;;27.30;52.20;;;;;;5072925;28;20120;-27
2022/08/20 11:52:36;;;;;;;3.55;1.30;;;27.80;49.90;;;;;;5073193;28;20039;-27
2022/08/20 11:55:05;;;;;;;3.13;1.40;;;27.10;49.20;;;;;;5072702;28;20064;-27
2022/08/20 11:57:34;;;;;;;3.65;1.55;;;27.00;50.20;;;;;;5072794;28;20028;-26
2022/08/20 12:00:04;;;;;;;5.60;1.52;;;26.80;51.30;;;;;;5072890;28;20036;-26
2022/08/20 12:02:29;;;;;;;2.75;1.13;;;26.60;50.90;;;;;;5073017;28;20037;-27
2022/08/20 12:04:55;;;;;;;2.95;1.30;;;26.70;52.10;;;;;;5072750;28;20545;-28
2022/08/20 12:07:23;;;;;;;2.90;1.17;;;26.60;50.60;;;;;;5062275;28;20444;-27
2022/08/20 12:09:49;;;;;;;3.42;1.40;;;26.20;50.40;;;;;;5072486;28;20040;-27
2022/08/20 12:12:16;;;;;;;4.10;1.45;;;26.10;51.60;;;;;;5072581;28;20040;-26
2022/08/20 12:14:42;;;;;;;3.55;1.30;;;25.90;51.40;;;;;;5072721;28;20401;-26
2022/08/20 12:17:10;;;;;;;4.40;1.40;;;25.70;52.30;;;;;;5056000;28;20116;-26
2022/08/20 12:19:38;;;;;;;4.47;1.33;;;25.60;52.80;;;;;;5072258;28;20040;-26
2022/08/20 12:22:04;;;;;;;4.78;1.40;;;25.50;53.20;;;;;;5072440;28;20040;-26
2022/08/20 12:24:30;;;;;;;4.05;1.35;;;25.40;53.30;;;;;;5072608;28;20520;-25
2022/08/20 12:27:06;;;;;;;3.67;1.40;;;25.30;53.50;;;;;;5073747;28;20064;-27
2022/08/20 12:29:32;;;;;;;3.55;1.45;;;25.30;52.90;;;;;;5055839;28;20530;-27
2022/08/20 12:31:58;;;;;;;3.45;1.30;;;26.10;53.90;;;;;;5072344;28;20036;-26
2022/08/20 12:34:24;;;;;;;2.97;1.20;;;27.00;52.30;;;;;;5073480;28;20113;-27
2022/08/20 12:36:49;;;;;;;5.35;1.48;;;27.80;50.80;;;;;;5071769;28;20549;-26
2022/08/20 12:39:15;;;;;;;3.47;1.30;;;28.10;49.30;;;;;;5072032;28;20037;-28
2022/08/20 12:41:41;;;;;;;4.32;1.48;;;28.00;49.00;;;;;;5071895;28;20086;-26
2022/08/20 12:44:08;;;;;;;2.88;1.52;;;28.20;49.60;;;;;;5071816;28;20045;-26
2022/08/20 12:46:34;;;;;;;4.20;1.42;;;28.60;47.60;;;;;;5071725;28;20039;-27
2022/08/20 12:48:59;;;;;;;3.03;1.42;;;29.50;47.30;;;;;;5071988;28;20120;-27